sensor_id;sensor_type;location;lat;lon;timestamp;temperature;humidity
25154;DHT22;47555;51.038;6.280;2023-05-10T00:01:54;13.10;99.90
25154;DHT22;47555;51.038;6.280;2023-05-10T00:04:19;13.10;99.90
25154;DHT22;47555;51.038;6.280;2023-05-10T00:06:45;13.10;99.90
25154;DHT22;47555;51.038;6.280;2023-05-10T00:09:11;13.10;99.90
25154;DHT22;47555;51.038;6.280;2023-05-10T00:11:36;13.10;99.90
25154;DHT22;47555;51.038;6.280;2023-05-10T00:14:02;13.10;99.90
25154;DHT22;47555;51.038;6.280;2023-05-10T00:16:27;13.10;99.90
25154;DHT22;47555;51.038;6.280;2023-05-10T00:18:53;13.10;99.90
25154;DHT22;47555;51.038;6.280;2023-05-10T00:21:18;13.10;99.90
25154;DHT22;47555;51.038;6.280;2023-05-10T00:23:44;13.10;99.90
25154;DHT22;47555;51.038;6.280;2023-05-10T00:26:09;13.10;99.90
25154;DHT22;47555;51.038;6.280;2023-05-10T00:28:35;13.10;99.90
25154;DHT22;47555;51.038;6.280;2023-05-10T00:31:00;13.10;99.90
25154;DHT22;47555;51.038;6.280;2023-05-10T00:33:26;13.10;99.90
25154;DHT22;47555;51.038;6.280;2023-05-10T00:35:51;13.10;99.90
25154;DHT22;47555;51.038;6.280;2023-05-10T00:38:17;13.10;99.90
25154;DHT22;47555;51.038;6.280;2023-05-10T00:40:43;13.10;99.90
25154;DHT22;47555;51.038;6.280;2023-05-10T00:43:09;13.10;99.90
25154;DHT22;47555;51.038;6.280;2023-05-10T00:45:35;13.10;99.90
25154;DHT22;47555;51.038;6.280;2023-05-10T00:48:03;13.10;99.90
25154;DHT22;47555;51.038;6.280;2023-05-10T00:50:29;13.10;99.90
25154;DHT22;47555;51.038;6.280;2023-05-10T00:52:56;13.10;99.90
25154;DHT22;47555;51.038;6.280;2023-05-10T00:55:22;13.10;99.90
25154;DHT22;47555;51.038;6.280;2023-05-10T00:57:47;13.10;99.90
25154;DHT22;47555;51.038;6.280;2023-05-10T01:00:13;13.10;99.90
25154;DHT22;47555;51.038;6.280;2023-05-10T01:02:44;13.00;99.90
25154;DHT22;47555;51.038;6.280;2023-05-10T01:05:09;13.10;99.90
25154;DHT22;47555;51.038;6.280;2023-05-10T01:07:35;13.10;99.90
25154;DHT22;47555;51.038;6.280;2023-05-10T01:10:01;13.10;99.90
25154;DHT22;47555;51.038;6.280;2023-05-10T01:12:26;13.00;99.90
25154;DHT22;47555;51.038;6.280;2023-05-10T01:14:52;13.00;99.90
25154;DHT22;47555;51.038;6.280;2023-05-10T01:17:18;13.10;99.90
25154;DHT22;47555;51.038;6.280;2023-05-10T01:19:44;13.00;99.90
25154;DHT22;47555;51.038;6.280;2023-05-10T01:28:23;13.00;99.90
25154;DHT22;47555;51.038;6.280;2023-05-10T01:31:33;13.00;99.90
25154;DHT22;47555;51.038;6.280;2023-05-10T01:34:08;13.00;99.90
25154;DHT22;47555;51.038;6.280;2023-05-10T01:36:53;13.00;99.90
25154;DHT22;47555;51.038;6.280;2023-05-10T01:42:01;12.90;99.90
25154;DHT22;47555;51.038;6.280;2023-05-10T01:44:39;12.90;99.90
25154;DHT22;47555;51.038;6.280;2023-05-10T01:47:15;12.90;99.90
25154;DHT22;47555;51.038;6.280;2023-05-10T01:49:54;12.90;99.90
25154;DHT22;47555;51.038;6.280;2023-05-10T01:52:25;12.80;99.90
25154;DHT22;47555;51.038;6.280;2023-05-10T01:54:55;12.80;99.90
25154;DHT22;47555;51.038;6.280;2023-05-10T01:57:22;12.80;99.90
25154;DHT22;47555;51.038;6.280;2023-05-10T01:59:51;12.80;99.90
25154;DHT22;47555;51.038;6.280;2023-05-10T02:02:20;12.80;99.90
25154;DHT22;47555;51.038;6.280;2023-05-10T02:04:46;12.80;99.90
25154;DHT22;47555;51.038;6.280;2023-05-10T02:07:14;12.80;99.90
25154;DHT22;47555;51.038;6.280;2023-05-10T02:09:41;12.80;99.90
25154;DHT22;47555;51.038;6.280;2023-05-10T02:12:09;12.80;99.90
25154;DHT22;47555;51.038;6.280;2023-05-10T02:14:38;12.80;99.90
25154;DHT22;47555;51.038;6.280;2023-05-10T02:17:06;12.80;99.90
25154;DHT22;47555;51.038;6.280;2023-05-10T02:19:33;12.80;99.90
25154;DHT22;47555;51.038;6.280;2023-05-10T02:22:01;12.80;99.90
25154;DHT22;47555;51.038;6.280;2023-05-10T02:24:29;12.80;99.90
25154;DHT22;47555;51.038;6.280;2023-05-10T02:26:55;12.80;99.90
25154;DHT22;47555;51.038;6.280;2023-05-10T02:29:23;12.80;99.90
25154;DHT22;47555;51.038;6.280;2023-05-10T02:31:53;12.80;99.90
25154;DHT22;47555;51.038;6.280;2023-05-10T02:34:21;12.80;99.90
25154;DHT22;47555;51.038;6.280;2023-05-10T02:36:47;12.90;99.90
25154;DHT22;47555;51.038;6.280;2023-05-10T02:39:14;12.80;99.90
25154;DHT22;47555;51.038;6.280;2023-05-10T02:41:42;12.80;99.90
25154;DHT22;47555;51.038;6.280;2023-05-10T02:44:09;12.90;99.90
25154;DHT22;47555;51.038;6.280;2023-05-10T02:46:35;12.90;99.90
25154;DHT22;47555;51.038;6.280;2023-05-10T02:49:03;12.90;99.90
25154;DHT22;47555;51.038;6.280;2023-05-10T02:51:31;12.90;99.90
25154;DHT22;47555;51.038;6.280;2023-05-10T02:53:57;13.00;99.90
25154;DHT22;47555;51.038;6.280;2023-05-10T02:56:32;12.90;99.90
25154;DHT22;47555;51.038;6.280;2023-05-10T02:58:58;12.90;99.90
25154;DHT22;47555;51.038;6.280;2023-05-10T03:01:25;13.00;99.90
25154;DHT22;47555;51.038;6.280;2023-05-10T03:03:50;13.00;99.90
25154;DHT22;47555;51.038;6.280;2023-05-10T03:06:16;13.00;99.90
25154;DHT22;47555;51.038;6.280;2023-05-10T03:08:42;13.00;99.90
25154;DHT22;47555;51.038;6.280;2023-05-10T03:20:20;13.00;99.90
25154;DHT22;47555;51.038;6.280;2023-05-10T03:22:53;13.00;99.90
25154;DHT22;47555;51.038;6.280;2023-05-10T03:25:21;13.00;99.90
25154;DHT22;47555;51.038;6.280;2023-05-10T03:27:47;13.00;99.90
25154;DHT22;47555;51.038;6.280;2023-05-10T03:30:13;12.90;99.90
25154;DHT22;47555;51.038;6.280;2023-05-10T03:32:39;12.90;99.90
25154;DHT22;47555;51.038;6.280;2023-05-10T03:35:09;12.90;99.90
25154;DHT22;47555;51.038;6.280;2023-05-10T03:37:35;12.90;99.90
25154;DHT22;47555;51.038;6.280;2023-05-10T03:40:01;12.80;99.90
25154;DHT22;47555;51.038;6.280;2023-05-10T03:42:26;12.80;99.90
25154;DHT22;47555;51.038;6.280;2023-05-10T03:44:52;12.80;99.90
25154;DHT22;47555;51.038;6.280;2023-05-10T03:47:17;12.80;99.90
25154;DHT22;47555;51.038;6.280;2023-05-10T03:49:46;12.80;99.90
25154;DHT22;47555;51.038;6.280;2023-05-10T03:52:11;12.90;99.90
25154;DHT22;47555;51.038;6.280;2023-05-10T03:54:37;12.80;99.90
25154;DHT22;47555;51.038;6.280;2023-05-10T03:57:03;12.80;99.90
25154;DHT22;47555;51.038;6.280;2023-05-10T03:59:29;12.80;99.90
25154;DHT22;47555;51.038;6.280;2023-05-10T04:01:55;12.80;99.90
25154;DHT22;47555;51.038;6.280;2023-05-10T04:04:20;12.80;99.90
25154;DHT22;47555;51.038;6.280;2023-05-10T04:06:46;12.70;99.90
25154;DHT22;47555;51.038;6.280;2023-05-10T04:09:12;12.70;99.90
25154;DHT22;47555;51.038;6.280;2023-05-10T04:11:38;12.70;99.90
25154;DHT22;47555;51.038;6.280;2023-05-10T04:14:03;12.70;99.90
25154;DHT22;47555;51.038;6.280;2023-05-10T04:16:29;12.70;99.90
25154;DHT22;47555;51.038;6.280;2023-05-10T04:18:54;12.70;99.90
25154;DHT22;47555;51.038;6.280;2023-05-10T04:21:20;12.80;99.90
25154;DHT22;47555;51.038;6.280;2023-05-10T04:23:45;12.70;99.90
25154;DHT22;47555;51.038;6.280;2023-05-10T04:26:11;12.70;99.90
25154;DHT22;47555;51.038;6.280;2023-05-10T04:28:37;12.70;99.90
25154;DHT22;47555;51.038;6.280;2023-05-10T04:31:04;12.70;99.90
25154;DHT22;47555;51.038;6.280;2023-05-10T04:33:30;12.70;99.90
25154;DHT22;47555;51.038;6.280;2023-05-10T04:35:56;12.70;99.90
25154;DHT22;47555;51.038;6.280;2023-05-10T04:38:21;12.70;99.90
25154;DHT22;47555;51.038;6.280;2023-05-10T04:40:47;12.70;99.90
25154;DHT22;47555;51.038;6.280;2023-05-10T04:43:12;12.70;99.90
25154;DHT22;47555;51.038;6.280;2023-05-10T04:45:38;12.70;99.90
25154;DHT22;47555;51.038;6.280;2023-05-10T04:48:04;12.70;99.90
25154;DHT22;47555;51.038;6.280;2023-05-10T04:50:29;12.70;99.90
25154;DHT22;47555;51.038;6.280;2023-05-10T04:52:55;12.70;99.90
25154;DHT22;47555;51.038;6.280;2023-05-10T04:55:21;12.70;99.90
25154;DHT22;47555;51.038;6.280;2023-05-10T04:57:46;12.60;99.90
25154;DHT22;47555;51.038;6.280;2023-05-10T05:00:12;12.70;99.90
25154;DHT22;47555;51.038;6.280;2023-05-10T05:02:38;12.60;99.90
25154;DHT22;47555;51.038;6.280;2023-05-10T05:05:04;12.60;99.90
25154;DHT22;47555;51.038;6.280;2023-05-10T05:07:29;12.60;99.90
25154;DHT22;47555;51.038;6.280;2023-05-10T05:09:56;12.60;99.90
25154;DHT22;47555;51.038;6.280;2023-05-10T05:12:24;12.70;99.90
25154;DHT22;47555;51.038;6.280;2023-05-10T05:14:49;12.70;99.90
25154;DHT22;47555;51.038;6.280;2023-05-10T05:17:15;12.70;99.90
25154;DHT22;47555;51.038;6.280;2023-05-10T05:19:41;12.70;99.90
25154;DHT22;47555;51.038;6.280;2023-05-10T05:22:07;12.70;99.90
25154;DHT22;47555;51.038;6.280;2023-05-10T05:24:37;12.70;99.90
25154;DHT22;47555;51.038;6.280;2023-05-10T05:27:03;12.70;99.90
25154;DHT22;47555;51.038;6.280;2023-05-10T05:29:29;12.70;99.90
25154;DHT22;47555;51.038;6.280;2023-05-10T05:31:55;12.70;99.90
25154;DHT22;47555;51.038;6.280;2023-05-10T05:34:20;12.70;99.90
25154;DHT22;47555;51.038;6.280;2023-05-10T05:36:47;12.70;99.90
25154;DHT22;47555;51.038;6.280;2023-05-10T05:39:12;12.70;99.90
25154;DHT22;47555;51.038;6.280;2023-05-10T05:41:38;12.70;99.90
25154;DHT22;47555;51.038;6.280;2023-05-10T05:44:04;12.70;99.90
25154;DHT22;47555;51.038;6.280;2023-05-10T05:46:29;12.70;99.90
25154;DHT22;47555;51.038;6.280;2023-05-10T05:48:55;12.70;99.90
25154;DHT22;47555;51.038;6.280;2023-05-10T05:51:20;12.70;99.90
25154;DHT22;47555;51.038;6.280;2023-05-10T05:53:46;12.70;99.90
25154;DHT22;47555;51.038;6.280;2023-05-10T05:56:11;12.70;99.90
25154;DHT22;47555;51.038;6.280;2023-05-10T05:58:37;12.70;99.90
25154;DHT22;47555;51.038;6.280;2023-05-10T06:01:02;12.70;99.90
25154;DHT22;47555;51.038;6.280;2023-05-10T06:03:28;12.80;99.90
25154;DHT22;47555;51.038;6.280;2023-05-10T06:05:53;12.70;99.90
25154;DHT22;47555;51.038;6.280;2023-05-10T06:08:19;12.80;99.90
25154;DHT22;47555;51.038;6.280;2023-05-10T06:10:45;12.80;99.90
25154;DHT22;47555;51.038;6.280;2023-05-10T06:13:11;12.80;99.90
25154;DHT22;47555;51.038;6.280;2023-05-10T06:15:37;12.80;99.90
25154;DHT22;47555;51.038;6.280;2023-05-10T06:18:02;12.90;99.90
25154;DHT22;47555;51.038;6.280;2023-05-10T06:20:28;12.80;99.90
25154;DHT22;47555;51.038;6.280;2023-05-10T06:22:54;12.90;99.90
25154;DHT22;47555;51.038;6.280;2023-05-10T06:25:19;12.80;99.90
25154;DHT22;47555;51.038;6.280;2023-05-10T06:27:45;12.80;99.90
25154;DHT22;47555;51.038;6.280;2023-05-10T06:30:11;12.80;99.90
25154;DHT22;47555;51.038;6.280;2023-05-10T06:32:41;12.90;99.90
25154;DHT22;47555;51.038;6.280;2023-05-10T06:35:09;12.80;99.90
25154;DHT22;47555;51.038;6.280;2023-05-10T06:37:34;12.80;99.90
25154;DHT22;47555;51.038;6.280;2023-05-10T06:40:00;12.80;99.90
25154;DHT22;47555;51.038;6.280;2023-05-10T06:42:26;12.80;99.90
25154;DHT22;47555;51.038;6.280;2023-05-10T06:44:52;12.80;99.90
25154;DHT22;47555;51.038;6.280;2023-05-10T06:47:18;12.80;99.90
25154;DHT22;47555;51.038;6.280;2023-05-10T06:49:43;12.80;99.90
25154;DHT22;47555;51.038;6.280;2023-05-10T06:52:12;12.80;99.90
25154;DHT22;47555;51.038;6.280;2023-05-10T06:54:38;12.80;99.90
25154;DHT22;47555;51.038;6.280;2023-05-10T06:57:03;12.80;99.90
25154;DHT22;47555;51.038;6.280;2023-05-10T06:59:29;12.90;99.90
25154;DHT22;47555;51.038;6.280;2023-05-10T07:01:55;12.80;99.90
25154;DHT22;47555;51.038;6.280;2023-05-10T07:04:20;12.90;99.90
25154;DHT22;47555;51.038;6.280;2023-05-10T07:06:45;12.90;99.90
25154;DHT22;47555;51.038;6.280;2023-05-10T07:09:11;12.90;99.90
25154;DHT22;47555;51.038;6.280;2023-05-10T07:11:38;12.90;99.90
25154;DHT22;47555;51.038;6.280;2023-05-10T07:14:04;12.90;99.90
25154;DHT22;47555;51.038;6.280;2023-05-10T07:16:29;13.00;99.90
25154;DHT22;47555;51.038;6.280;2023-05-10T07:18:55;13.00;99.90
25154;DHT22;47555;51.038;6.280;2023-05-10T07:21:20;13.10;99.90
25154;DHT22;47555;51.038;6.280;2023-05-10T07:23:46;13.10;99.90
25154;DHT22;47555;51.038;6.280;2023-05-10T07:26:11;13.10;99.90
25154;DHT22;47555;51.038;6.280;2023-05-10T07:28:37;13.10;99.90
25154;DHT22;47555;51.038;6.280;2023-05-10T07:31:04;13.10;99.90
25154;DHT22;47555;51.038;6.280;2023-05-10T07:33:31;13.10;99.90
25154;DHT22;47555;51.038;6.280;2023-05-10T07:35:56;13.20;99.90
25154;DHT22;47555;51.038;6.280;2023-05-10T07:38:22;13.20;99.90
25154;DHT22;47555;51.038;6.280;2023-05-10T07:40:48;13.20;99.90
25154;DHT22;47555;51.038;6.280;2023-05-10T07:43:14;13.20;99.90
25154;DHT22;47555;51.038;6.280;2023-05-10T07:45:39;13.30;99.90
25154;DHT22;47555;51.038;6.280;2023-05-10T07:48:05;13.30;99.90
25154;DHT22;47555;51.038;6.280;2023-05-10T07:50:30;13.30;99.90
25154;DHT22;47555;51.038;6.280;2023-05-10T07:52:56;13.30;99.90
25154;DHT22;47555;51.038;6.280;2023-05-10T07:55:21;13.40;99.90
25154;DHT22;47555;51.038;6.280;2023-05-10T07:57:47;13.50;99.90
25154;DHT22;47555;51.038;6.280;2023-05-10T08:00:13;13.40;99.90
25154;DHT22;47555;51.038;6.280;2023-05-10T08:02:41;13.50;99.90
25154;DHT22;47555;51.038;6.280;2023-05-10T08:05:07;13.50;99.90
25154;DHT22;47555;51.038;6.280;2023-05-10T08:07:33;13.60;99.90
25154;DHT22;47555;51.038;6.280;2023-05-10T08:09:58;13.50;99.90
25154;DHT22;47555;51.038;6.280;2023-05-10T08:12:24;13.50;99.90
25154;DHT22;47555;51.038;6.280;2023-05-10T08:14:49;13.50;99.90
25154;DHT22;47555;51.038;6.280;2023-05-10T08:17:15;13.50;99.90
25154;DHT22;47555;51.038;6.280;2023-05-10T08:19:41;13.50;99.90
25154;DHT22;47555;51.038;6.280;2023-05-10T08:22:06;13.60;99.90
25154;DHT22;47555;51.038;6.280;2023-05-10T08:24:32;13.60;99.90
25154;DHT22;47555;51.038;6.280;2023-05-10T08:26:57;13.60;99.90
25154;DHT22;47555;51.038;6.280;2023-05-10T08:29:23;13.60;99.90
25154;DHT22;47555;51.038;6.280;2023-05-10T08:31:48;13.60;99.90
25154;DHT22;47555;51.038;6.280;2023-05-10T08:34:14;13.70;99.90
25154;DHT22;47555;51.038;6.280;2023-05-10T08:36:40;13.70;99.90
25154;DHT22;47555;51.038;6.280;2023-05-10T08:39:05;13.80;99.90
25154;DHT22;47555;51.038;6.280;2023-05-10T08:41:33;14.00;99.90
25154;DHT22;47555;51.038;6.280;2023-05-10T08:43:59;14.00;99.90
25154;DHT22;47555;51.038;6.280;2023-05-10T08:46:28;14.10;99.90
25154;DHT22;47555;51.038;6.280;2023-05-10T08:48:53;14.20;99.90
25154;DHT22;47555;51.038;6.280;2023-05-10T08:51:23;14.20;99.90
25154;DHT22;47555;51.038;6.280;2023-05-10T08:53:52;14.30;99.90
25154;DHT22;47555;51.038;6.280;2023-05-10T08:56:17;14.40;99.90
25154;DHT22;47555;51.038;6.280;2023-05-10T08:58:43;14.50;99.90
25154;DHT22;47555;51.038;6.280;2023-05-10T09:01:09;14.80;99.90
25154;DHT22;47555;51.038;6.280;2023-05-10T09:03:38;14.70;99.90
25154;DHT22;47555;51.038;6.280;2023-05-10T09:06:04;14.70;99.90
25154;DHT22;47555;51.038;6.280;2023-05-10T09:08:30;14.80;99.90
25154;DHT22;47555;51.038;6.280;2023-05-10T09:10:56;14.80;99.90
25154;DHT22;47555;51.038;6.280;2023-05-10T09:13:23;14.80;99.90
25154;DHT22;47555;51.038;6.280;2023-05-10T09:15:49;14.90;99.90
25154;DHT22;47555;51.038;6.280;2023-05-10T09:18:14;14.90;99.90
25154;DHT22;47555;51.038;6.280;2023-05-10T09:20:40;15.00;99.90
25154;DHT22;47555;51.038;6.280;2023-05-10T09:23:06;15.00;99.90
25154;DHT22;47555;51.038;6.280;2023-05-10T09:25:32;15.00;99.90
25154;DHT22;47555;51.038;6.280;2023-05-10T09:28:01;15.10;99.90
25154;DHT22;47555;51.038;6.280;2023-05-10T09:30:28;15.20;99.90
25154;DHT22;47555;51.038;6.280;2023-05-10T09:32:55;15.20;99.90
25154;DHT22;47555;51.038;6.280;2023-05-10T09:35:26;15.10;99.90
25154;DHT22;47555;51.038;6.280;2023-05-10T09:37:53;15.10;99.90
25154;DHT22;47555;51.038;6.280;2023-05-10T09:40:24;15.10;99.90
25154;DHT22;47555;51.038;6.280;2023-05-10T09:42:55;15.00;99.90
25154;DHT22;47555;51.038;6.280;2023-05-10T09:45:22;15.00;99.90
25154;DHT22;47555;51.038;6.280;2023-05-10T09:47:48;15.00;99.90
25154;DHT22;47555;51.038;6.280;2023-05-10T09:50:14;15.00;99.90
25154;DHT22;47555;51.038;6.280;2023-05-10T09:55:40;15.20;99.90
25154;DHT22;47555;51.038;6.280;2023-05-10T09:58:06;15.30;99.90
25154;DHT22;47555;51.038;6.280;2023-05-10T10:00:37;15.40;99.90
25154;DHT22;47555;51.038;6.280;2023-05-10T10:03:03;15.40;99.90
25154;DHT22;47555;51.038;6.280;2023-05-10T10:05:30;15.40;99.90
25154;DHT22;47555;51.038;6.280;2023-05-10T10:07:57;15.40;99.90
25154;DHT22;47555;51.038;6.280;2023-05-10T10:10:24;15.40;99.90
25154;DHT22;47555;51.038;6.280;2023-05-10T10:12:51;15.40;99.90
25154;DHT22;47555;51.038;6.280;2023-05-10T10:15:16;15.40;99.90
25154;DHT22;47555;51.038;6.280;2023-05-10T10:17:43;15.40;99.90
25154;DHT22;47555;51.038;6.280;2023-05-10T10:20:09;15.40;99.90
25154;DHT22;47555;51.038;6.280;2023-05-10T10:22:35;15.50;99.90
25154;DHT22;47555;51.038;6.280;2023-05-10T10:25:02;15.50;99.90
25154;DHT22;47555;51.038;6.280;2023-05-10T10:35:29;15.90;99.90
25154;DHT22;47555;51.038;6.280;2023-05-10T10:37:55;15.90;99.90
25154;DHT22;47555;51.038;6.280;2023-05-10T10:40:27;16.00;99.90
25154;DHT22;47555;51.038;6.280;2023-05-10T10:42:53;16.00;99.90
25154;DHT22;47555;51.038;6.280;2023-05-10T10:45:20;16.10;99.90
25154;DHT22;47555;51.038;6.280;2023-05-10T10:47:46;16.20;99.90
25154;DHT22;47555;51.038;6.280;2023-05-10T10:50:11;16.20;99.90
25154;DHT22;47555;51.038;6.280;2023-05-10T10:52:43;16.30;99.90
25154;DHT22;47555;51.038;6.280;2023-05-10T10:55:11;16.20;99.90
25154;DHT22;47555;51.038;6.280;2023-05-10T11:02:59;16.00;99.90
25154;DHT22;47555;51.038;6.280;2023-05-10T11:11:02;16.10;99.90
25154;DHT22;47555;51.038;6.280;2023-05-10T11:13:50;16.20;99.90
25154;DHT22;47555;51.038;6.280;2023-05-10T11:16:20;16.10;99.90
25154;DHT22;47555;51.038;6.280;2023-05-10T11:18:58;16.10;99.90
25154;DHT22;47555;51.038;6.280;2023-05-10T11:21:24;16.20;99.90
25154;DHT22;47555;51.038;6.280;2023-05-10T11:23:53;16.20;99.90
25154;DHT22;47555;51.038;6.280;2023-05-10T11:26:29;16.20;99.90
25154;DHT22;47555;51.038;6.280;2023-05-10T11:28:55;16.20;99.90
25154;DHT22;47555;51.038;6.280;2023-05-10T11:31:21;16.20;99.90
25154;DHT22;47555;51.038;6.280;2023-05-10T11:33:49;16.10;99.90
25154;DHT22;47555;51.038;6.280;2023-05-10T11:36:20;16.10;99.90
25154;DHT22;47555;51.038;6.280;2023-05-10T11:38:46;16.10;99.90
25154;DHT22;47555;51.038;6.280;2023-05-10T11:41:13;16.10;99.90
25154;DHT22;47555;51.038;6.280;2023-05-10T11:43:39;16.20;99.90
25154;DHT22;47555;51.038;6.280;2023-05-10T11:46:11;16.20;99.90
25154;DHT22;47555;51.038;6.280;2023-05-10T11:48:41;16.40;99.90
25154;DHT22;47555;51.038;6.280;2023-05-10T11:51:10;16.60;99.90
25154;DHT22;47555;51.038;6.280;2023-05-10T11:53:36;17.00;99.90
25154;DHT22;47555;51.038;6.280;2023-05-10T11:56:10;17.30;99.90
25154;DHT22;47555;51.038;6.280;2023-05-10T11:58:36;17.50;99.90
25154;DHT22;47555;51.038;6.280;2023-05-10T12:01:04;17.80;99.50
25154;DHT22;47555;51.038;6.280;2023-05-10T12:03:30;18.00;97.80
25154;DHT22;47555;51.038;6.280;2023-05-10T12:05:57;18.00;93.40
25154;DHT22;47555;51.038;6.280;2023-05-10T12:08:28;18.10;93.50
25154;DHT22;47555;51.038;6.280;2023-05-10T12:11:05;18.10;94.90
25154;DHT22;47555;51.038;6.280;2023-05-10T12:13:31;18.10;91.80
25154;DHT22;47555;51.038;6.280;2023-05-10T12:15:59;18.00;90.40
25154;DHT22;47555;51.038;6.280;2023-05-10T12:18:28;17.90;90.30
25154;DHT22;47555;51.038;6.280;2023-05-10T12:20:53;17.80;92.70
25154;DHT22;47555;51.038;6.280;2023-05-10T12:23:20;17.80;92.00
25154;DHT22;47555;51.038;6.280;2023-05-10T12:25:46;17.80;93.20
25154;DHT22;47555;51.038;6.280;2023-05-10T12:28:12;17.80;94.80
25154;DHT22;47555;51.038;6.280;2023-05-10T12:30:38;17.90;93.20
25154;DHT22;47555;51.038;6.280;2023-05-10T12:33:08;17.80;91.60
25154;DHT22;47555;51.038;6.280;2023-05-10T12:35:43;17.70;89.90
25154;DHT22;47555;51.038;6.280;2023-05-10T12:38:45;17.70;91.10
25154;DHT22;47555;51.038;6.280;2023-05-10T12:41:15;17.60;91.40
25154;DHT22;47555;51.038;6.280;2023-05-10T12:43:41;17.60;90.20
25154;DHT22;47555;51.038;6.280;2023-05-10T12:46:08;17.60;87.20
25154;DHT22;47555;51.038;6.280;2023-05-10T12:48:35;17.50;89.90
25154;DHT22;47555;51.038;6.280;2023-05-10T12:51:02;17.60;90.10
25154;DHT22;47555;51.038;6.280;2023-05-10T12:53:28;17.70;94.50
25154;DHT22;47555;51.038;6.280;2023-05-10T12:55:53;17.90;91.40
25154;DHT22;47555;51.038;6.280;2023-05-10T12:58:19;18.20;87.20
25154;DHT22;47555;51.038;6.280;2023-05-10T13:00:45;18.30;84.10
25154;DHT22;47555;51.038;6.280;2023-05-10T13:03:11;18.40;82.20
25154;DHT22;47555;51.038;6.280;2023-05-10T13:05:36;18.30;80.10
25154;DHT22;47555;51.038;6.280;2023-05-10T13:08:02;18.30;83.10
25154;DHT22;47555;51.038;6.280;2023-05-10T13:10:31;18.20;86.60
25154;DHT22;47555;51.038;6.280;2023-05-10T13:13:00;18.20;85.70
25154;DHT22;47555;51.038;6.280;2023-05-10T13:15:26;18.10;86.20
25154;DHT22;47555;51.038;6.280;2023-05-10T13:17:53;18.00;85.00
25154;DHT22;47555;51.038;6.280;2023-05-10T13:20:19;17.90;89.20
25154;DHT22;47555;51.038;6.280;2023-05-10T13:22:44;17.90;89.50
25154;DHT22;47555;51.038;6.280;2023-05-10T13:25:10;17.80;88.40
25154;DHT22;47555;51.038;6.280;2023-05-10T13:27:37;17.80;87.20
25154;DHT22;47555;51.038;6.280;2023-05-10T13:30:03;17.80;86.90
25154;DHT22;47555;51.038;6.280;2023-05-10T13:32:29;17.90;84.00
25154;DHT22;47555;51.038;6.280;2023-05-10T13:34:55;17.90;88.10
25154;DHT22;47555;51.038;6.280;2023-05-10T13:37:21;18.00;84.50
25154;DHT22;47555;51.038;6.280;2023-05-10T13:39:46;18.00;84.00
25154;DHT22;47555;51.038;6.280;2023-05-10T13:42:12;18.20;88.60
25154;DHT22;47555;51.038;6.280;2023-05-10T13:44:38;18.40;87.30
25154;DHT22;47555;51.038;6.280;2023-05-10T13:47:04;18.50;79.80
25154;DHT22;47555;51.038;6.280;2023-05-10T13:49:29;18.60;83.80
25154;DHT22;47555;51.038;6.280;2023-05-10T13:51:55;18.70;79.70
25154;DHT22;47555;51.038;6.280;2023-05-10T13:54:20;18.80;86.00
25154;DHT22;47555;51.038;6.280;2023-05-10T13:56:47;18.70;81.00
25154;DHT22;47555;51.038;6.280;2023-05-10T13:59:14;18.70;80.90
25154;DHT22;47555;51.038;6.280;2023-05-10T14:01:40;18.60;77.20
25154;DHT22;47555;51.038;6.280;2023-05-10T14:04:05;18.60;81.00
25154;DHT22;47555;51.038;6.280;2023-05-10T14:06:32;18.70;77.80
25154;DHT22;47555;51.038;6.280;2023-05-10T14:08:57;18.70;80.50
25154;DHT22;47555;51.038;6.280;2023-05-10T14:11:23;18.80;81.30
25154;DHT22;47555;51.038;6.280;2023-05-10T14:13:48;18.90;81.50
25154;DHT22;47555;51.038;6.280;2023-05-10T14:16:14;18.90;78.50
25154;DHT22;47555;51.038;6.280;2023-05-10T14:18:40;18.80;80.80
25154;DHT22;47555;51.038;6.280;2023-05-10T14:21:05;18.80;81.00
25154;DHT22;47555;51.038;6.280;2023-05-10T14:23:31;18.80;77.60
25154;DHT22;47555;51.038;6.280;2023-05-10T14:25:57;18.80;82.20
25154;DHT22;47555;51.038;6.280;2023-05-10T14:28:22;18.80;77.80
25154;DHT22;47555;51.038;6.280;2023-05-10T14:30:49;18.70;78.10
25154;DHT22;47555;51.038;6.280;2023-05-10T14:33:14;18.60;76.80
25154;DHT22;47555;51.038;6.280;2023-05-10T14:35:40;18.60;77.80
25154;DHT22;47555;51.038;6.280;2023-05-10T14:38:05;18.50;75.20
25154;DHT22;47555;51.038;6.280;2023-05-10T14:40:31;18.30;78.80
25154;DHT22;47555;51.038;6.280;2023-05-10T14:42:57;18.30;80.10
25154;DHT22;47555;51.038;6.280;2023-05-10T14:45:22;18.20;81.70
25154;DHT22;47555;51.038;6.280;2023-05-10T14:47:49;18.20;82.90
25154;DHT22;47555;51.038;6.280;2023-05-10T14:50:14;18.20;82.70
25154;DHT22;47555;51.038;6.280;2023-05-10T14:52:40;18.20;81.40
25154;DHT22;47555;51.038;6.280;2023-05-10T14:55:06;18.10;82.30
25154;DHT22;47555;51.038;6.280;2023-05-10T14:57:32;18.10;84.70
25154;DHT22;47555;51.038;6.280;2023-05-10T14:59:57;18.10;80.20
25154;DHT22;47555;51.038;6.280;2023-05-10T15:02:23;18.00;80.40
25154;DHT22;47555;51.038;6.280;2023-05-10T15:04:48;18.00;83.30
25154;DHT22;47555;51.038;6.280;2023-05-10T15:07:14;17.90;81.90
25154;DHT22;47555;51.038;6.280;2023-05-10T15:09:41;17.80;80.70
25154;DHT22;47555;51.038;6.280;2023-05-10T15:12:07;17.70;82.00
25154;DHT22;47555;51.038;6.280;2023-05-10T15:14:32;17.60;80.50
25154;DHT22;47555;51.038;6.280;2023-05-10T15:16:58;17.60;82.80
25154;DHT22;47555;51.038;6.280;2023-05-10T15:19:24;17.50;82.20
25154;DHT22;47555;51.038;6.280;2023-05-10T15:21:49;17.50;81.40
25154;DHT22;47555;51.038;6.280;2023-05-10T15:24:15;17.40;82.10
25154;DHT22;47555;51.038;6.280;2023-05-10T15:26:41;17.30;82.30
25154;DHT22;47555;51.038;6.280;2023-05-10T15:29:06;17.20;83.50
25154;DHT22;47555;51.038;6.280;2023-05-10T15:31:32;17.10;83.40
25154;DHT22;47555;51.038;6.280;2023-05-10T15:34:00;17.10;85.40
25154;DHT22;47555;51.038;6.280;2023-05-10T15:36:26;17.00;87.80
25154;DHT22;47555;51.038;6.280;2023-05-10T15:38:52;17.00;86.50
25154;DHT22;47555;51.038;6.280;2023-05-10T15:41:18;17.00;86.80
25154;DHT22;47555;51.038;6.280;2023-05-10T15:43:44;17.00;86.80
25154;DHT22;47555;51.038;6.280;2023-05-10T15:46:09;17.10;86.90
25154;DHT22;47555;51.038;6.280;2023-05-10T15:48:35;17.10;88.10
25154;DHT22;47555;51.038;6.280;2023-05-10T15:51:00;17.20;90.00
25154;DHT22;47555;51.038;6.280;2023-05-10T15:53:26;17.40;92.80
25154;DHT22;47555;51.038;6.280;2023-05-10T15:55:52;17.30;91.90
25154;DHT22;47555;51.038;6.280;2023-05-10T15:58:18;17.30;90.50
25154;DHT22;47555;51.038;6.280;2023-05-10T16:00:43;17.40;89.90
25154;DHT22;47555;51.038;6.280;2023-05-10T16:03:09;17.30;89.60
25154;DHT22;47555;51.038;6.280;2023-05-10T16:05:34;17.30;90.80
25154;DHT22;47555;51.038;6.280;2023-05-10T16:08:00;17.30;91.70